createdAt,value
2023-03-08T00:01:00.464Z,10.23
2023-03-08T00:05:54.430Z,10.80
2023-03-08T00:10:47.604Z,11.55
2023-03-08T00:15:41.633Z,12.80
2023-03-08T00:20:35.133Z,13.02
2023-03-08T00:25:28.277Z,13.18
2023-03-08T00:30:21.725Z,12.93
2023-03-08T00:35:14.917Z,11.55
2023-03-08T00:40:12.705Z,12.50
2023-03-08T00:45:05.451Z,11.60
2023-03-08T00:49:59.031Z,11.85
2023-03-08T00:54:52.562Z,9.93
2023-03-08T00:59:45.579Z,12.02
2023-03-08T01:04:39.959Z,10.35
2023-03-08T01:09:33.280Z,10.23
2023-03-08T01:14:26.713Z,11.77
2023-03-08T01:19:19.872Z,12.52
2023-03-08T01:24:13.119Z,10.52
2023-03-08T01:29:07.267Z,12.25
2023-03-08T01:34:01.035Z,11.32
2023-03-08T01:38:53.452Z,10.65
2023-03-08T01:43:47.636Z,13.15
2023-03-08T01:48:54.868Z,12.80
2023-03-08T01:53:47.892Z,11.02
2023-03-08T01:58:41.349Z,10.43
2023-03-08T02:03:34.758Z,11.30
2023-03-08T02:08:29.155Z,10.15
2023-03-08T02:13:22.629Z,10.43
2023-03-08T02:18:15.897Z,9.68
2023-03-08T02:23:18.504Z,7.68
2023-03-08T02:28:10.653Z,8.43
2023-03-08T02:33:03.521Z,8.25
2023-03-08T02:37:56.309Z,7.63
2023-03-08T02:42:53.263Z,8.40
2023-03-08T02:47:46.760Z,7.88
2023-03-08T02:52:41.937Z,6.80
2023-03-08T02:57:35.052Z,6.20
2023-03-08T03:02:29.725Z,7.15
2023-03-08T03:07:24.167Z,6.97
2023-03-08T03:12:18.224Z,7.88
2023-03-08T03:17:10.623Z,6.47
2023-03-08T03:22:04.770Z,6.28
2023-03-08T03:26:59.092Z,5.40
2023-03-08T03:31:56.231Z,6.35
2023-03-08T03:36:49.477Z,6.28
2023-03-08T03:41:42.962Z,5.90
2023-03-08T03:46:38.753Z,5.75
2023-03-08T03:51:34.528Z,6.03
2023-03-08T03:56:42.887Z,6.38
2023-03-08T04:01:36.008Z,4.75
2023-03-08T04:06:37.510Z,4.57
2023-03-08T04:11:38.985Z,4.40
2023-03-08T04:16:37.473Z,5.32
2023-03-08T04:21:34.797Z,5.25
2023-03-08T04:26:28.921Z,5.57
2023-03-08T04:31:28.827Z,5.13
2023-03-08T04:36:25.419Z,6.07
2023-03-08T04:41:22.677Z,4.82
2023-03-08T04:46:33.023Z,4.07
2023-03-08T04:51:27.937Z,5.28
2023-03-08T04:56:24.616Z,5.40
2023-03-08T05:01:20.385Z,5.95
2023-03-08T05:06:14.567Z,6.35
2023-03-08T05:11:07.709Z,6.03
2023-03-08T05:16:05.835Z,5.68
2023-03-08T05:21:01.139Z,6.05
2023-03-08T05:25:57.108Z,6.78
2023-03-08T05:30:50.993Z,5.47
2023-03-08T05:35:44.263Z,6.22
2023-03-08T05:40:39.641Z,6.47
2023-03-08T05:45:33.763Z,6.13
2023-03-08T05:50:26.715Z,6.90
2023-03-08T05:55:19.472Z,5.15
2023-03-08T06:00:15.285Z,5.88
2023-03-08T06:05:15.828Z,9.57
2023-03-08T06:10:13.209Z,8.60
2023-03-08T06:15:08.085Z,6.72
2023-03-08T06:20:03.044Z,8.07
2023-03-08T06:24:59.960Z,6.15
2023-03-08T06:29:59.508Z,6.32
2023-03-08T06:34:52.928Z,10.32
2023-03-08T06:39:46.898Z,7.03
2023-03-08T06:44:40.796Z,7.35
2023-03-08T06:49:35.805Z,8.15
2023-03-08T06:54:29.189Z,6.95
2023-03-08T06:59:22.982Z,6.90
2023-03-08T07:04:18.613Z,9.57
2023-03-08T07:09:11.814Z,8.40
2023-03-08T07:14:04.787Z,11.75
2023-03-08T07:18:58.570Z,12.73
2023-03-08T07:23:53.241Z,9.98
2023-03-08T07:28:49.188Z,10.27
2023-03-08T07:33:43.002Z,8.57
2023-03-08T07:38:36.481Z,9.52
2023-03-08T07:43:29.911Z,10.32
2023-03-08T07:48:46.615Z,12.25
2023-03-08T07:53:39.569Z,10.02
2023-03-08T07:58:32.581Z,8.48
2023-03-08T08:03:26.092Z,9.45
2023-03-08T08:08:19.770Z,4.90
2023-03-08T08:13:14.127Z,4.65
2023-03-08T08:18:07.933Z,5.15
2023-03-08T08:23:02.088Z,5.60
2023-03-08T08:27:55.582Z,5.32
2023-03-08T08:32:48.315Z,5.60
2023-03-08T08:37:41.943Z,5.13
2023-03-08T08:42:36.228Z,6.82
2023-03-08T08:47:30.542Z,7.15
2023-03-08T08:52:24.133Z,7.60
2023-03-08T08:57:17.608Z,7.40
2023-03-08T09:02:11.889Z,7.68
2023-03-08T09:07:04.420Z,7.60
2023-03-08T09:11:57.788Z,8.75
2023-03-08T09:16:50.880Z,9.57
2023-03-08T09:21:43.669Z,8.88
2023-03-08T09:26:37.200Z,9.32
2023-03-08T09:31:29.972Z,9.35
2023-03-08T09:36:23.176Z,9.82
2023-03-08T09:41:27.570Z,10.25
2023-03-08T09:46:25.604Z,10.82
2023-03-08T09:51:19.547Z,9.32
2023-03-08T09:56:21.367Z,11.07
2023-03-08T10:01:34.272Z,12.82
2023-03-08T10:06:45.797Z,12.10
2023-03-08T10:11:46.150Z,12.05
2023-03-08T10:16:47.090Z,10.15
2023-03-08T10:21:41.956Z,13.55
2023-03-08T10:26:35.155Z,11.90
2023-03-08T10:31:33.652Z,10.65
2023-03-08T10:36:26.729Z,12.80
2023-03-08T10:41:19.730Z,11.95
2023-03-08T10:46:14.503Z,10.98
2023-03-08T10:51:22.949Z,10.25
2023-03-08T10:56:27.566Z,11.40
2023-03-08T11:01:34.111Z,10.80
2023-03-08T11:06:27.670Z,10.90
2023-03-08T11:11:20.937Z,10.30
2023-03-08T11:16:49.813Z,10.38
2023-03-08T11:22:06.096Z,11.25
2023-03-08T11:27:19.391Z,10.95
2023-03-08T11:32:46.475Z,9.40
2023-03-08T11:38:17.543Z,10.23
2023-03-08T11:43:10.215Z,11.07
2023-03-08T11:48:45.379Z,9.57
2023-03-08T11:53:58.544Z,8.82
2023-03-08T11:59:06.655Z,8.43
2023-03-08T12:04:08.447Z,8.95
2023-03-08T12:09:31.386Z,8.88
2023-03-08T12:14:31.402Z,8.75
2023-03-08T12:19:40.489Z,8.60
2023-03-08T12:24:51.700Z,8.38
2023-03-08T12:29:54.443Z,9.05
2023-03-08T12:34:48.062Z,7.63
2023-03-08T12:39:41.741Z,9.52
2023-03-08T12:44:34.388Z,7.88
2023-03-08T12:49:37.873Z,8.65
2023-03-08T12:54:33.875Z,9.55
2023-03-08T12:59:50.960Z,9.75
2023-03-08T13:04:44.447Z,9.50
2023-03-08T13:09:41.735Z,10.95
2023-03-08T13:15:06.551Z,9.90
2023-03-08T13:20:11.472Z,10.73
2023-03-08T13:25:34.988Z,9.63
2023-03-08T13:30:52.276Z,11.68
2023-03-08T13:35:55.590Z,11.93
2023-03-08T13:40:55.757Z,10.07
2023-03-08T13:45:49.896Z,10.50
2023-03-08T13:50:44.658Z,10.88
2023-03-08T13:55:44.657Z,10.10
2023-03-08T14:00:38.193Z,10.00
2023-03-08T14:05:42.182Z,10.30
2023-03-08T14:10:45.249Z,11.10
2023-03-08T14:15:40.032Z,11.35
2023-03-08T14:20:33.442Z,11.90
2023-03-08T14:25:31.332Z,10.18
2023-03-08T14:30:26.803Z,10.63
2023-03-08T14:35:36.773Z,10.38
2023-03-08T14:40:35.815Z,10.63
2023-03-08T14:50:51.657Z,11.25
2023-03-08T14:55:45.393Z,11.52
2023-03-08T15:00:49.397Z,10.32
2023-03-08T15:05:42.727Z,11.80
2023-03-08T15:10:37.456Z,12.55
2023-03-08T15:15:30.849Z,10.52
2023-03-08T15:20:25.442Z,11.73
2023-03-08T15:25:38.394Z,12.40
2023-03-08T15:30:32.007Z,11.52
2023-03-08T15:35:24.701Z,11.73
2023-03-08T15:40:23.211Z,11.38
2023-03-08T15:45:21.106Z,5.80
2023-03-08T15:50:19.298Z,4.82
2023-03-08T15:55:14.830Z,6.88
2023-03-08T16:00:09.923Z,2.63
2023-03-08T16:05:06.246Z,4.47
2023-03-08T16:09:59.682Z,6.93
2023-03-08T16:14:56.016Z,2.72
2023-03-08T16:19:52.410Z,2.60
2023-03-08T16:24:50.037Z,2.90
2023-03-08T16:29:44.215Z,3.55
2023-03-08T16:34:42.159Z,3.28
2023-03-08T16:39:37.388Z,3.67
2023-03-08T16:44:33.160Z,6.75
2023-03-08T16:49:33.114Z,18.25
2023-03-08T16:59:24.021Z,2.17
2023-03-08T17:04:20.708Z,5.13
2023-03-08T17:09:18.184Z,3.25
2023-03-08T17:14:15.349Z,3.88
2023-03-08T17:19:11.564Z,3.85
2023-03-08T17:24:29.409Z,4.05
2023-03-08T17:29:24.404Z,3.50
2023-03-08T17:34:18.618Z,2.40
2023-03-08T17:39:11.891Z,4.10
2023-03-08T17:44:05.171Z,1.52
2023-03-08T17:48:58.461Z,3.08
2023-03-08T17:53:52.415Z,3.30
2023-03-08T17:58:45.816Z,8.18
2023-03-08T18:03:39.094Z,2.40
2023-03-08T18:08:33.201Z,3.45
2023-03-08T18:13:26.355Z,1.95
2023-03-08T18:18:19.964Z,2.65
2023-03-08T18:23:13.663Z,3.88
2023-03-08T18:28:06.993Z,2.85
2023-03-08T18:33:01.020Z,1.25
2023-03-08T18:37:54.605Z,2.03
2023-03-08T18:42:48.529Z,1.63
2023-03-08T18:47:40.838Z,1.55
2023-03-08T18:52:34.509Z,2.33
2023-03-08T18:57:27.563Z,3.30
2023-03-08T19:02:23.589Z,2.60
2023-03-08T19:07:17.334Z,3.80
2023-03-08T19:12:11.162Z,3.08
2023-03-08T19:17:04.488Z,2.58
2023-03-08T19:21:56.858Z,2.38
2023-03-08T19:26:52.774Z,2.28
2023-03-08T19:31:56.704Z,2.08
2023-03-08T19:36:50.184Z,2.40
2023-03-08T19:41:44.999Z,2.20
2023-03-08T19:46:39.817Z,4.75
2023-03-08T19:51:33.369Z,8.90
2023-03-08T19:56:27.683Z,12.80
2023-03-08T20:01:21.592Z,11.50
2023-03-08T20:06:32.671Z,12.63
2023-03-08T20:11:25.846Z,14.35
2023-03-08T20:16:19.828Z,16.00
2023-03-08T20:21:13.451Z,14.75
2023-03-08T20:26:07.213Z,15.10
2023-03-08T20:31:01.633Z,16.52
2023-03-08T20:36:17.671Z,16.30
2023-03-08T20:41:13.995Z,19.75
2023-03-08T20:46:09.932Z,17.88
2023-03-08T20:51:05.868Z,17.38
2023-03-08T20:55:59.768Z,20.25
2023-03-08T21:00:53.850Z,18.30
2023-03-08T21:05:47.490Z,13.18
2023-03-08T21:10:41.838Z,14.05
2023-03-08T21:15:35.266Z,13.13
2023-03-08T21:20:28.523Z,13.73
2023-03-08T21:25:22.289Z,12.95
2023-03-08T21:30:16.916Z,13.75
2023-03-08T21:35:11.910Z,14.63
2023-03-08T21:40:08.249Z,15.90
2023-03-08T21:45:01.461Z,16.23
2023-03-08T21:49:56.070Z,12.88
2023-03-08T21:54:49.899Z,11.85
2023-03-08T21:59:43.634Z,12.70
2023-03-08T22:04:38.619Z,14.40
2023-03-08T22:09:33.374Z,14.00
2023-03-08T22:14:27.242Z,12.95
2023-03-08T22:19:21.698Z,11.10
2023-03-08T22:24:15.414Z,11.63
2023-03-08T22:29:08.649Z,11.70
2023-03-08T22:34:02.889Z,11.55
2023-03-08T22:38:55.924Z,11.45
2023-03-08T22:43:50.155Z,9.82
2023-03-08T22:48:44.683Z,11.02
2023-03-08T22:53:37.744Z,10.70
2023-03-08T22:58:31.193Z,8.45
2023-03-08T23:03:26.153Z,8.18
2023-03-08T23:08:22.320Z,9.18
2023-03-08T23:13:32.645Z,9.27
2023-03-08T23:23:20.448Z,9.52
2023-03-08T23:28:13.829Z,9.88
2023-03-08T23:33:07.496Z,8.80
2023-03-08T23:38:01.852Z,10.75
2023-03-08T23:42:55.478Z,8.75
2023-03-08T23:47:49.070Z,10.13
2023-03-08T23:52:43.064Z,9.63
2023-03-08T23:57:36.891Z,9.20
